Wetterstation Vordersexau
Wetterdaten: Woche 22.06.15 - 28.06.15 (KW26)
Datum Zeit Temp. A. Feuchte A. Luftdruck Regen Wind Richtung Taupunkt Windchill Windben
22.06.2015 00:00 14,5 C 84 % 1014,4 hPa 0,0 l/m 0,0 km/h N-NO 11,8 C 14,5 C 0,0 km/h
22.06.2015 01:00 14,3 C 84 % 1014,1 hPa 0,0 l/m 0,0 km/h N-NO 11,6 C 14,3 C 0,0 km/h
22.06.2015 02:00 13,8 C 83 % 1013,6 hPa 0,0 l/m 0,0 km/h N-NO 11,0 C 13,8 C 0,0 km/h
22.06.2015 03:00 12,4 C 84 % 1013,3 hPa 0,0 l/m 0,0 km/h O-SO 9,8 C 12,4 C 0,0 km/h
22.06.2015 04:00 11,8 C 83 % 1012,8 hPa 0,0 l/m 0,0 km/h W-SW 9,0 C 11,8 C 0,0 km/h
22.06.2015 05:00 11,8 C 82 % 1012,6 hPa 0,0 l/m 0,0 km/h N 8,8 C 11,8 C 0,0 km/h
22.06.2015 06:00 13,6 C 80 % 1012,4 hPa 0,0 l/m 0,0 km/h N 10,2 C 13,6 C 0,0 km/h
22.06.2015 07:00 17,4 C 81 % 1012,0 hPa 0,0 l/m 0,0 km/h W-SW 14,1 C 17,4 C 0,0 km/h
22.06.2015 08:00 19,8 C 72 % 1011,9 hPa 0,0 l/m 20,7 km/h W-SW 14,6 C 15,8 C 11,5 km/h
22.06.2015 09:00 19,3 C 70 % 1012,3 hPa 0,0 l/m 7,1 km/h W 13,7 C 19,0 C 4,0 km/h
22.06.2015 10:00 20,1 C 68 % 1012,2 hPa 0,0 l/m 2,6 km/h W-NW 14,0 C 20,1 C 1,4 km/h
22.06.2015 11:00 19,3 C 70 % 1012,0 hPa 0,0 l/m 12,3 km/h W 13,7 C 17,1 C 6,8 km/h
22.06.2015 12:00 19,6 C 68 % 1011,7 hPa 0,0 l/m 7,8 km/h W 13,5 C 19,0 C 4,3 km/h
22.06.2015 13:00 20,6 C 63 % 1010,9 hPa 0,0 l/m 4,5 km/h W 13,3 C 20,6 C 2,5 km/h
22.06.2015 14:00 20,7 C 62 % 1010,5 hPa 0,0 l/m 5,2 km/h W-NW 13,2 C 20,7 C 2,9 km/h
22.06.2015 15:00 20,4 C 61 % 1010,0 hPa 0,0 l/m 11,7 km/h S 12,6 C 18,6 C 6,5 km/h
22.06.2015 16:00 20,2 C 62 % 1008,8 hPa 0,0 l/m 3,2 km/h W-SW 12,7 C 20,2 C 1,8 km/h
22.06.2015 17:00 20,0 C 58 % 1007,4 hPa 0,0 l/m 13,6 km/h S 11,5 C 17,6 C 7,6 km/h
22.06.2015 18:00 18,8 C 65 % 1006,4 hPa 0,0 l/m 0,0 km/h S-SO 12,1 C 18,8 C 0,0 km/h
22.06.2015 19:00 17,9 C 70 % 1005,7 hPa 0,0 l/m 0,0 km/h S-SO 12,3 C 17,9 C 0,0 km/h
22.06.2015 20:00 16,6 C 77 % 1004,8 hPa 0,0 l/m 0,0 km/h NO 12,5 C 16,6 C 0,0 km/h
22.06.2015 21:00 16,3 C 76 % 1006,0 hPa 0,8 l/m 36,3 km/h N-NW 12,1 C 8,7 C 20,2 km/h
22.06.2015 22:00 13,4 C 83 % 1008,5 hPa 0,8 l/m 3,9 km/h SO 10,6 C 13,4 C 2,2 km/h
22.06.2015 23:00 12,6 C 84 % 1008,8 hPa 0,0 l/m 0,0 km/h S-SW 10,0 C 12,6 C 0,0 km/h
23.06.2015 00:00 11,8 C 85 % 1008,4 hPa 1,2 l/m 1,3 km/h S 9,4 C 11,8 C 0,7 km/h
23.06.2015 01:00 12,3 C 85 % 1008,9 hPa 0,0 l/m 10,4 km/h W-NW 9,9 C 9,9 C 5,8 km/h
23.06.2015 02:00 12,3 C 84 % 1009,3 hPa 0,0 l/m 12,3 km/h N-NO 9,7 C 9,0 C 6,8 km/h
23.06.2015 03:00 12,3 C 84 % 1009,9 hPa 0,0 l/m 0,0 km/h N-NO 9,7 C 12,3 C 0,0 km/h
23.06.2015 04:00 11,9 C 84 % 1010,0 hPa 0,0 l/m 0,0 km/h W-NW 9,3 C 11,9 C 0,0 km/h
23.06.2015 05:00 11,5 C 85 % 1010,5 hPa 0,0 l/m 0,0 km/h N 9,1 C 11,5 C 0,0 km/h
23.06.2015 06:00 10,6 C 85 % 1010,9 hPa 0,0 l/m 0,0 km/h SO 8,2 C 10,6 C 0,0 km/h
23.06.2015 07:00 14,9 C 85 % 1011,6 hPa 0,0 l/m 0,0 km/h NW 12,4 C 14,9 C 0,0 km/h
23.06.2015 08:00 21,8 C 54 % 1011,7 hPa 0,0 l/m 0,0 km/h W 12,1 C 21,8 C 0,0 km/h
23.06.2015 09:00 16,3 C 64 % 1011,9 hPa 0,0 l/m 0,0 km/h NO 9,5 C 16,3 C 0,0 km/h
23.06.2015 10:00 20,1 C 54 % 1012,0 hPa 0,0 l/m 8,4 km/h W-NW 10,5 C 19,3 C 4,7 km/h
23.06.2015 11:00 17,6 C 56 % 1012,4 hPa 0,0 l/m 2,6 km/h W-NW 8,7 C 17,6 C 1,4 km/h
23.06.2015 12:00 17,6 C 58 % 1012,8 hPa 0,0 l/m 0,0 km/h W-NW 9,2 C 17,6 C 0,0 km/h
23.06.2015 13:00 18,1 C 56 % 1013,0 hPa 0,0 l/m 4,5 km/h NW 9,2 C 18,1 C 2,5 km/h
23.06.2015 14:00 17,8 C 54 % 1013,3 hPa 0,0 l/m 3,2 km/h NW 8,4 C 17,8 C 1,8 km/h
23.06.2015 15:00 18,3 C 53 % 1013,8 hPa 0,0 l/m 7,1 km/h N 8,6 C 18,0 C 4,0 km/h
23.06.2015 16:00 18,3 C 55 % 1014,2 hPa 0,0 l/m 0,0 km/h W-NW 9,1 C 18,3 C 0,0 km/h
23.06.2015 17:00 19,3 C 58 % 1014,5 hPa 0,0 l/m 1,9 km/h W-NW 10,8 C 19,3 C 1,1 km/h
23.06.2015 18:00 17,8 C 58 % 1014,7 hPa 0,0 l/m 0,0 km/h NW 9,4 C 17,8 C 0,0 km/h
23.06.2015 19:00 16,6 C 59 % 1015,2 hPa 0,0 l/m 0,0 km/h W 8,6 C 16,6 C 0,0 km/h
23.06.2015 20:00 16,1 C 66 % 1015,5 hPa 0,0 l/m 0,0 km/h W 9,7 C 16,1 C 0,0 km/h
23.06.2015 21:00 13,1 C 72 % 1016,3 hPa 0,0 l/m 0,0 km/h N 8,2 C 13,1 C 0,0 km/h
23.06.2015 22:00 10,9 C 79 % 1017,1 hPa 0,0 l/m 0,0 km/h SO 7,4 C 10,9 C 0,0 km/h
23.06.2015 23:00 9,4 C 82 % 1017,6 hPa 0,0 l/m 0,0 km/h SO 6,5 C 9,4 C 0,0 km/h
24.06.2015 00:00 9,1 C 84 % 1017,6 hPa 0,0 l/m 0,0 km/h SO 6,5 C 9,1 C 0,0 km/h
24.06.2015 01:00 9,4 C 84 % 1017,8 hPa 0,0 l/m 0,0 km/h SO 6,8 C 9,4 C 0,0 km/h
24.06.2015 02:00 8,1 C 85 % 1018,1 hPa 0,0 l/m 0,0 km/h SO 5,7 C 8,1 C 0,0 km/h
24.06.2015 03:00 7,8 C 85 % 1018,2 hPa 0,0 l/m 0,0 km/h NO 5,4 C 7,8 C 0,0 km/h
24.06.2015 04:00 7,3 C 85 % 1018,4 hPa 0,0 l/m 0,0 km/h NO 4,9 C 7,3 C 0,0 km/h
24.06.2015 05:00 6,9 C 85 % 1018,9 hPa 0,0 l/m 0,0 km/h SO 4,6 C 6,9 C 0,0 km/h
24.06.2015 06:00 7,9 C 84 % 1019,5 hPa 0,0 l/m 0,0 km/h S-SO 5,4 C 7,9 C 0,0 km/h
24.06.2015 07:00 13,6 C 73 % 1019,9 hPa 0,0 l/m 0,0 km/h S-SO 8,9 C 13,6 C 0,0 km/h
24.06.2015 08:00 22,2 C 57 % 1020,2 hPa 0,0 l/m 0,0 km/h NO 13,3 C 22,2 C 0,0 km/h
24.06.2015 09:00 23,0 C 51 % 1020,3 hPa 0,0 l/m 9,7 km/h SW 12,3 C 22,0 C 5,4 km/h
24.06.2015 10:00 22,6 C 54 % 1020,1 hPa 0,0 l/m 6,5 km/h W 12,8 C 22,6 C 3,6 km/h
24.06.2015 11:00 22,9 C 49 % 1019,8 hPa 0,0 l/m 1,9 km/h NO 11,6 C 22,9 C 1,1 km/h
24.06.2015 12:00 22,4 C 49 % 1019,5 hPa 0,0 l/m 2,6 km/h N-NO 11,2 C 22,4 C 1,4 km/h
24.06.2015 13:00 24,5 C 47 % 1019,1 hPa 0,0 l/m 1,9 km/h W-NW 12,4 C 24,5 C 1,1 km/h
24.06.2015 14:00 25,6 C 45 % 1018,7 hPa 0,0 l/m 22,0 km/h NW 12,8 C 23,2 C 12,2 km/h
24.06.2015 15:00 24,5 C 44 % 1018,5 hPa 0,0 l/m 4,5 km/h NO 11,4 C 24,5 C 2,5 km/h
24.06.2015 16:00 26,3 C 40 % 1018,4 hPa 0,0 l/m 13,6 km/h W-NW 11,6 C 25,1 C 7,6 km/h
24.06.2015 17:00 28,1 C 35 % 1018,0 hPa 0,0 l/m 6,5 km/h NW 11,2 C 28,1 C 3,6 km/h
24.06.2015 18:00 28,3 C 35 % 1017,9 hPa 0,0 l/m 5,2 km/h N 11,4 C 28,3 C 2,9 km/h
24.06.2015 19:00 22,1 C 44 % 1018,5 hPa 0,0 l/m 0,6 km/h N-NO 9,3 C 22,1 C 0,4 km/h
24.06.2015 20:00 19,8 C 53 % 1018,6 hPa 0,0 l/m 0,0 km/h O 9,9 C 19,8 C 0,0 km/h
24.06.2015 21:00 15,8 C 66 % 1019,4 hPa 0,0 l/m 0,0 km/h O 9,5 C 15,8 C 0,0 km/h
24.06.2015 22:00 13,8 C 72 % 1019,7 hPa 0,0 l/m 0,0 km/h O 8,8 C 13,8 C 0,0 km/h
24.06.2015 23:00 13,1 C 77 % 1019,9 hPa 0,0 l/m 0,0 km/h O-SO 9,2 C 13,1 C 0,0 km/h
25.06.2015 00:00 12,1 C 81 % 1020,1 hPa 0,0 l/m 0,0 km/h O-SO 8,9 C 12,1 C 0,0 km/h
25.06.2015 01:00 11,3 C 83 % 1020,4 hPa 0,0 l/m 0,0 km/h O-SO 8,5 C 11,3 C 0,0 km/h
25.06.2015 02:00 10,3 C 84 % 1020,5 hPa 0,0 l/m 0,0 km/h O-SO 7,7 C 10,3 C 0,0 km/h
25.06.2015 03:00 9,8 C 85 % 1020,1 hPa 0,0 l/m 0,0 km/h O 7,4 C 9,8 C 0,0 km/h
25.06.2015 04:00 9,4 C 85 % 1020,1 hPa 0,0 l/m 0,0 km/h S-SO 7,0 C 9,4 C 0,0 km/h
25.06.2015 05:00 9,3 C 85 % 1020,0 hPa 0,0 l/m 0,0 km/h N-NO 6,9 C 9,3 C 0,0 km/h
25.06.2015 06:00 11,1 C 84 % 1020,4 hPa 0,0 l/m 0,0 km/h O-SO 8,5 C 11,1 C 0,0 km/h
25.06.2015 07:00 15,1 C 84 % 1020,7 hPa 0,0 l/m 0,0 km/h NO 12,4 C 15,1 C 0,0 km/h
25.06.2015 08:00 18,9 C 69 % 1020,7 hPa 0,0 l/m 0,0 km/h N-NO 13,1 C 18,9 C 0,0 km/h
25.06.2015 09:00 24,0 C 52 % 1020,5 hPa 0,0 l/m 0,0 km/h N 13,5 C 24,0 C 0,0 km/h
25.06.2015 10:00 24,7 C 51 % 1020,7 hPa 0,0 l/m 0,0 km/h N-NO 13,9 C 24,7 C 0,0 km/h
25.06.2015 11:00 25,8 C 51 % 1020,6 hPa 0,0 l/m 0,0 km/h W-NW 14,9 C 25,8 C 0,0 km/h
25.06.2015 12:00 25,2 C 50 % 1020,7 hPa 0,0 l/m 11,7 km/h NO 14,0 C 24,1 C 6,5 km/h
25.06.2015 13:00 27,2 C 41 % 1020,4 hPa 0,0 l/m 14,9 km/h NW 12,8 C 26,0 C 8,3 km/h
25.06.2015 14:00 27,6 C 37 % 1020,2 hPa 0,0 l/m 18,8 km/h N-NO 11,6 C 26,1 C 10,4 km/h
25.06.2015 15:00 27,9 C 39 % 1020,2 hPa 0,0 l/m 9,1 km/h W-NW 12,6 C 27,5 C 5,0 km/h
25.06.2015 16:00 29,4 C 38 % 1019,6 hPa 0,0 l/m 0,0 km/h W-NW 13,6 C 29,4 C 0,0 km/h
25.06.2015 17:00 31,9 C 33 % 1019,5 hPa 0,0 l/m 0,0 km/h NW 13,6 C 31,9 C 0,0 km/h
25.06.2015 18:00 29,4 C 35 % 1019,5 hPa 0,0 l/m 0,0 km/h NO 12,3 C 29,4 C 0,0 km/h
25.06.2015 19:00 24,9 C 43 % 1019,4 hPa 0,0 l/m 7,8 km/h N-NW 11,4 C 24,5 C 4,3 km/h
25.06.2015 20:00 21,8 C 51 % 1019,7 hPa 0,0 l/m 0,0 km/h N-NO 11,2 C 21,8 C 0,0 km/h
25.06.2015 21:00 16,9 C 68 % 1020,2 hPa 0,0 l/m 0,0 km/h N-NO 11,0 C 16,9 C 0,0 km/h
25.06.2015 22:00 15,4 C 70 % 1020,7 hPa 0,0 l/m 0,0 km/h S-SO 10,0 C 15,4 C 0,0 km/h
25.06.2015 23:00 13,9 C 76 % 1020,8 hPa 0,0 l/m 0,0 km/h SO 9,7 C 13,9 C 0,0 km/h
26.06.2015 00:00 13,2 C 80 % 1020,7 hPa 0,0 l/m 0,0 km/h SO 9,8 C 13,2 C 0,0 km/h
26.06.2015 01:00 12,3 C 81 % 1020,3 hPa 0,0 l/m 0,0 km/h SO 9,1 C 12,3 C 0,0 km/h
26.06.2015 02:00 12,1 C 82 % 1020,2 hPa 0,0 l/m 0,0 km/h SO 9,1 C 12,1 C 0,0 km/h
26.06.2015 03:00 11,6 C 83 % 1020,1 hPa 0,0 l/m 0,0 km/h SO 8,8 C 11,6 C 0,0 km/h
26.06.2015 04:00 11,1 C 83 % 1020,0 hPa 0,0 l/m 0,0 km/h S-SO 8,3 C 11,1 C 0,0 km/h
26.06.2015 05:00 10,9 C 84 % 1020,1 hPa 0,0 l/m 0,0 km/h S-SO 8,3 C 10,9 C 0,0 km/h
26.06.2015 06:00 11,8 C 84 % 1020,4 hPa 0,0 l/m 0,0 km/h S-SO 9,2 C 11,8 C 0,0 km/h
26.06.2015 07:00 16,9 C 80 % 1020,4 hPa 0,0 l/m 0,0 km/h SO 13,4 C 16,9 C 0,0 km/h
26.06.2015 08:00 24,2 C 56 % 1020,2 hPa 0,0 l/m 5,8 km/h O-SO 14,9 C 24,2 C 3,2 km/h
26.06.2015 09:00 29,7 C 43 % 1020,2 hPa 0,0 l/m 0,0 km/h N-NW 15,8 C 29,7 C 0,0 km/h
26.06.2015 10:00 27,6 C 44 % 1019,9 hPa 0,0 l/m 0,0 km/h W-NW 14,2 C 27,6 C 0,0 km/h
26.06.2015 11:00 27,8 C 42 % 1019,4 hPa 0,0 l/m 1,9 km/h W-NW 13,7 C 27,8 C 1,1 km/h
26.06.2015 12:00 27,9 C 41 % 1018,9 hPa 0,0 l/m 0,0 km/h W-NW 13,4 C 27,9 C 0,0 km/h
26.06.2015 13:00 29,0 C 38 % 1018,4 hPa 0,0 l/m 0,0 km/h W 13,2 C 29,0 C 0,0 km/h
26.06.2015 14:00 30,6 C 37 % 1017,7 hPa 0,0 l/m 0,0 km/h N-NO 14,2 C 30,6 C 0,0 km/h
26.06.2015 15:00 30,0 C 37 % 1017,9 hPa 0,0 l/m 0,0 km/h NW 13,7 C 30,0 C 0,0 km/h
26.06.2015 16:00 30,8 C 36 % 1017,7 hPa 0,0 l/m 3,2 km/h NO 14,0 C 30,8 C 1,8 km/h
26.06.2015 17:00 33,0 C 28 % 1017,3 hPa 0,0 l/m 0,0 km/h NO 12,0 C 33,0 C 0,0 km/h
26.06.2015 18:00 27,1 C 39 % 1016,9 hPa 0,0 l/m 0,0 km/h NO 11,9 C 27,1 C 0,0 km/h
26.06.2015 19:00 24,3 C 54 % 1017,0 hPa 0,0 l/m 0,0 km/h NO 14,4 C 24,3 C 0,0 km/h
26.06.2015 20:00 23,6 C 55 % 1017,0 hPa 0,0 l/m 0,0 km/h NO 14,0 C 23,6 C 0,0 km/h
26.06.2015 21:00 18,9 C 65 % 1017,0 hPa 0,0 l/m 0,0 km/h NO 12,2 C 18,9 C 0,0 km/h
26.06.2015 22:00 17,2 C 70 % 1017,1 hPa 0,0 l/m 0,0 km/h S-SO 11,7 C 17,2 C 0,0 km/h
26.06.2015 23:00 15,4 C 74 % 1016,9 hPa 0,0 l/m 0,0 km/h S-SO 10,8 C 15,4 C 0,0 km/h
27.06.2015 00:00 14,9 C 75 % 1016,6 hPa 0,0 l/m 0,0 km/h S-SO 10,5 C 14,9 C 0,0 km/h
27.06.2015 01:00 14,8 C 77 % 1016,3 hPa 0,0 l/m 0,0 km/h SO 10,8 C 14,8 C 0,0 km/h
27.06.2015 02:00 15,2 C 76 % 1016,0 hPa 0,0 l/m 2,6 km/h S-SO 11,0 C 15,2 C 1,4 km/h
27.06.2015 03:00 15,3 C 75 % 1015,5 hPa 0,0 l/m 0,0 km/h S-SO 10,9 C 15,3 C 0,0 km/h
27.06.2015 04:00 15,1 C 76 % 1014,8 hPa 0,0 l/m 9,1 km/h S-SO 10,9 C 13,6 C 5,0 km/h
27.06.2015 05:00 14,8 C 78 % 1014,9 hPa 0,0 l/m 0,0 km/h SO 11,0 C 14,8 C 0,0 km/h
27.06.2015 06:00 15,6 C 78 % 1014,9 hPa 0,0 l/m 0,0 km/h SO 11,8 C 15,6 C 0,0 km/h
27.06.2015 07:00 17,6 C 76 % 1014,4 hPa 0,0 l/m 1,9 km/h S-SO 13,3 C 17,6 C 1,1 km/h
27.06.2015 08:00 21,1 C 70 % 1014,5 hPa 0,0 l/m 0,0 km/h O-NO 15,4 C 21,1 C 0,0 km/h
27.06.2015 09:00 21,6 C 66 % 1014,7 hPa 0,0 l/m 0,0 km/h NO 15,0 C 21,6 C 0,0 km/h
27.06.2015 10:00 20,9 C 77 % 1015,1 hPa 0,4 l/m 0,0 km/h O 16,7 C 20,9 C 0,0 km/h
27.06.2015 11:00 25,1 C 65 % 1015,2 hPa 0,0 l/m 0,0 km/h NW 18,0 C 25,1 C 0,0 km/h
27.06.2015 12:00 28,1 C 55 % 1014,9 hPa 0,0 l/m 12,3 km/h N-NO 18,2 C 27,3 C 6,8 km/h
27.06.2015 13:00 27,6 C 51 % 1014,9 hPa 0,0 l/m 0,0 km/h N-NO 16,5 C 27,6 C 0,0 km/h
27.06.2015 14:00 29,1 C 47 % 1014,7 hPa 0,0 l/m 8,4 km/h N-NW 16,6 C 28,9 C 4,7 km/h
27.06.2015 15:00 28,6 C 45 % 1014,6 hPa 0,0 l/m 5,2 km/h N 15,5 C 28,6 C 2,9 km/h
27.06.2015 16:00 29,9 C 42 % 1015,0 hPa 0,0 l/m 0,0 km/h N-NO 15,6 C 29,9 C 0,0 km/h
27.06.2015 17:00 27,1 C 45 % 1015,9 hPa 0,0 l/m 18,8 km/h N-NO 14,1 C 25,5 C 10,4 km/h
27.06.2015 18:00 29,4 C 42 % 1016,4 hPa 0,0 l/m 5,2 km/h NW 15,1 C 29,4 C 2,9 km/h
27.06.2015 19:00 24,8 C 48 % 1016,6 hPa 0,0 l/m 4,5 km/h N-NO 13,0 C 24,8 C 2,5 km/h
27.06.2015 20:00 22,5 C 54 % 1017,4 hPa 0,0 l/m 0,0 km/h N-NO 12,7 C 22,5 C 0,0 km/h
27.06.2015 21:00 17,7 C 68 % 1018,1 hPa 0,0 l/m 0,0 km/h O-SO 11,7 C 17,7 C 0,0 km/h
27.06.2015 22:00 15,9 C 73 % 1018,9 hPa 0,0 l/m 0,0 km/h O-SO 11,1 C 15,9 C 0,0 km/h
27.06.2015 23:00 16,5 C 77 % 1019,3 hPa 0,0 l/m 0,0 km/h O-SO 12,5 C 16,5 C 0,0 km/h
28.06.2015 00:00 15,6 C 78 % 1019,3 hPa 0,0 l/m 0,0 km/h O-SO 11,8 C 15,6 C 0,0 km/h
28.06.2015 01:00 13,5 C 81 % 1019,3 hPa 0,0 l/m 0,0 km/h O-SO 10,3 C 13,5 C 0,0 km/h
28.06.2015 02:00 12,0 C 82 % 1019,3 hPa 0,0 l/m 0,0 km/h SO 9,0 C 12,0 C 0,0 km/h
28.06.2015 03:00 11,3 C 83 % 1019,3 hPa 0,0 l/m 1,3 km/h SO 8,5 C 11,3 C 0,7 km/h
28.06.2015 04:00 10,7 C 84 % 1019,2 hPa 0,0 l/m 0,0 km/h SO 8,1 C 10,7 C 0,0 km/h
28.06.2015 05:00 10,2 C 85 % 1019,3 hPa 0,0 l/m 0,0 km/h SO 7,8 C 10,2 C 0,0 km/h
28.06.2015 06:00 11,3 C 85 % 1019,6 hPa 0,0 l/m 0,0 km/h S-SO 8,9 C 11,3 C 0,0 km/h
28.06.2015 07:00 17,4 C 83 % 1019,6 hPa 0,0 l/m 0,0 km/h SO 14,5 C 17,4 C 0,0 km/h
28.06.2015 08:00 26,4 C 51 % 1019,7 hPa 0,0 l/m 0,0 km/h W-NW 15,4 C 26,4 C 0,0 km/h
28.06.2015 09:00 27,8 C 44 % 1019,6 hPa 0,0 l/m 0,0 km/h W 14,4 C 27,8 C 0,0 km/h
28.06.2015 10:00 26,7 C 46 % 1019,4 hPa 0,0 l/m 0,0 km/h W-NW 14,1 C 26,7 C 0,0 km/h
28.06.2015 11:00 26,9 C 43 % 1019,4 hPa 0,0 l/m 3,9 km/h NO 13,2 C 26,9 C 2,2 km/h
28.06.2015 12:00 26,8 C 41 % 1018,8 hPa 0,0 l/m 1,3 km/h N 12,4 C 26,8 C 0,7 km/h
28.06.2015 13:00 28,4 C 38 % 1018,3 hPa 0,0 l/m 0,0 km/h W 12,7 C 28,4 C 0,0 km/h
28.06.2015 14:00 28,8 C 33 % 1017,8 hPa 0,0 l/m 1,3 km/h W-NW 10,9 C 28,8 C 0,7 km/h
28.06.2015 15:00 28,7 C 33 % 1017,6 hPa 0,0 l/m 0,0 km/h W 10,8 C 28,7 C 0,0 km/h
28.06.2015 16:00 30,9 C 30 % 1017,1 hPa 0,0 l/m 3,2 km/h W 11,3 C 30,9 C 1,8 km/h
28.06.2015 17:00 33,9 C 27 % 1016,8 hPa 0,0 l/m 0,0 km/h W-NW 12,2 C 33,9 C 0,0 km/h
28.06.2015 18:00 32,4 C 30 % 1016,8 hPa 0,0 l/m 9,1 km/h NO 12,6 C 32,4 C 5,0 km/h
28.06.2015 19:00 26,8 C 39 % 1016,7 hPa 0,0 l/m 4,5 km/h S-SO 11,7 C 26,8 C 2,5 km/h
28.06.2015 20:00 23,1 C 53 % 1017,4 hPa 0,0 l/m 0,0 km/h O-NO 13,0 C 23,1 C 0,0 km/h
28.06.2015 21:00 18,2 C 65 % 1017,9 hPa 0,0 l/m 0,0 km/h O-NO 11,5 C 18,2 C 0,0 km/h
28.06.2015 22:00 16,5 C 72 % 1018,4 hPa 0,0 l/m 0,0 km/h SO 11,4 C 16,5 C 0,0 km/h
28.06.2015 23:00 15,1 C 77 % 1018,5 hPa 0,0 l/m 0,0 km/h SO 11,1 C 15,1 C 0,0 km/h
Min-Datum _ 24.06.15 28.06.15 22.06.15 - 22.06.15 - 24.06.15 24.06.15 22.06.15
_ Min-Zeit 05:51 17:51 20:51 - 00:51 - 05:51 05:51 00:51
Minimum _ 6,9 C 27 % 1004,8 hPa - 0,0 km/h - 4,6 C 6,9 C 0,0 km/h
Max-Datum _ 28.06.15 23.06.15 25.06.15 23.06.15 22.06.15 - 27.06.15 28.06.15 22.06.15
_ Max-Zeit 17:51 00:51 23:51 00:51 21:51 - 12:51 17:51 21:51
Maximum _ 33,9 C 85 % 1020,8 hPa 1,2 l/m 36,3 km/h
N-NW
- 18,2 C 33,9 C 20,2 km/h
N-NW
Durchschnitt _ 19,1 C 64 % 1016,5 hPa #3,3 l/m 2,5 km/h SO 11,3 C 18,9 C 1,4 km/h
www.sexauwetter.de